createdAt,value
2022-10-04T00:00:10.301Z,20.50
2022-10-04T00:02:37.930Z,20.50
2022-10-04T00:05:07.500Z,20.50
2022-10-04T00:07:37.826Z,20.40
2022-10-04T00:10:15.932Z,20.40
2022-10-04T00:12:48.907Z,20.40
2022-10-04T00:15:21.549Z,20.40
2022-10-04T00:18:14.958Z,20.40
2022-10-04T00:20:50.981Z,20.40
2022-10-04T00:23:24.516Z,20.40
2022-10-04T00:25:52.461Z,20.40
2022-10-04T00:28:25.709Z,20.30
2022-10-04T00:31:11.200Z,20.30
2022-10-04T00:33:38.500Z,20.30
2022-10-04T00:36:23.913Z,20.30
2022-10-04T00:39:09.209Z,20.30
2022-10-04T00:41:39.143Z,20.30
2022-10-04T00:44:10.398Z,20.30
2022-10-04T00:46:40.650Z,20.30
2022-10-04T00:49:08.654Z,20.30
2022-10-04T00:51:39.538Z,20.20
2022-10-04T00:54:12.724Z,20.20
2022-10-04T00:56:45.128Z,20.20
2022-10-04T00:59:16.956Z,20.20
2022-10-04T01:01:45.289Z,20.20
2022-10-04T01:04:22.515Z,20.20
2022-10-04T01:06:49.694Z,20.20
2022-10-04T01:09:17.123Z,20.20
2022-10-04T01:11:47.299Z,20.20
2022-10-04T01:14:26.531Z,20.20
2022-10-04T01:16:53.562Z,20.10
2022-10-04T01:19:26.450Z,20.10
2022-10-04T01:22:02.515Z,20.10
2022-10-04T01:24:34.835Z,20.10
2022-10-04T01:27:02.322Z,20.10
2022-10-04T01:29:30.915Z,20.10
2022-10-04T01:31:59.375Z,20.10
2022-10-04T01:34:30.344Z,20.10
2022-10-04T01:37:00.841Z,20.10
2022-10-04T01:39:28.508Z,20.10
2022-10-04T01:41:58.337Z,20.00
2022-10-04T01:44:33.011Z,20.00
2022-10-04T01:47:02.774Z,20.00
2022-10-04T01:49:32.307Z,20.00
2022-10-04T01:52:08.454Z,20.00
2022-10-04T01:54:47.832Z,20.00
2022-10-04T01:57:17.637Z,20.00
2022-10-04T01:59:48.680Z,20.00
2022-10-04T02:02:21.666Z,20.00
2022-10-04T02:04:53.562Z,20.00
2022-10-04T02:07:21.435Z,20.00
2022-10-04T02:09:50.697Z,19.90
2022-10-04T02:12:19.783Z,19.90
2022-10-04T02:14:52.549Z,19.90
2022-10-04T02:17:23.240Z,19.90
2022-10-04T02:19:50.462Z,19.90
2022-10-04T02:22:17.795Z,19.90
2022-10-04T02:24:46.442Z,19.90
2022-10-04T02:27:13.583Z,19.90
2022-10-04T02:29:40.591Z,19.90
2022-10-04T02:32:26.996Z,19.90
2022-10-04T02:34:54.951Z,19.90
2022-10-04T02:37:23.551Z,19.80
2022-10-04T02:39:54.086Z,19.80
2022-10-04T02:42:40.014Z,19.80
2022-10-04T02:45:12.861Z,19.80
2022-10-04T02:48:00.480Z,19.80
2022-10-04T02:50:32.832Z,19.80
2022-10-04T02:53:09.737Z,19.80
2022-10-04T02:55:37.663Z,19.80
2022-10-04T02:58:08.831Z,19.80
2022-10-04T03:00:44.526Z,19.80
2022-10-04T03:03:25.606Z,19.80
2022-10-04T03:05:55.555Z,19.80
2022-10-04T03:08:22.547Z,19.70
2022-10-04T03:10:50.708Z,19.80
2022-10-04T03:13:19.152Z,19.80
2022-10-04T03:15:47.023Z,19.80
2022-10-04T03:18:15.171Z,19.70
2022-10-04T03:20:42.591Z,19.70
2022-10-04T03:23:10.455Z,19.70
2022-10-04T03:25:43.447Z,19.70
2022-10-04T03:28:10.624Z,19.70
2022-10-04T03:30:37.731Z,19.70
2022-10-04T03:33:05.392Z,19.70
2022-10-04T03:35:34.526Z,19.70
2022-10-04T03:38:04.708Z,19.70
2022-10-04T03:40:32.922Z,19.70
2022-10-04T03:43:01.502Z,19.70
2022-10-04T03:45:29.194Z,19.70
2022-10-04T03:47:58.563Z,19.60
2022-10-04T03:50:27.772Z,19.60
2022-10-04T03:52:58.927Z,19.70
2022-10-04T03:55:33.252Z,19.80
2022-10-04T03:58:01.126Z,19.80
2022-10-04T04:00:28.882Z,19.90
2022-10-04T04:02:58.370Z,20.00
2022-10-04T04:05:35.352Z,20.10
2022-10-04T04:08:11.599Z,20.20
2022-10-04T04:10:41.956Z,20.40
2022-10-04T04:13:24.347Z,20.60
2022-10-04T04:15:51.688Z,20.90
2022-10-04T04:18:18.692Z,21.10
2022-10-04T04:20:46.774Z,21.30
2022-10-04T04:23:23.504Z,21.40
2022-10-04T04:25:54.648Z,21.60
2022-10-04T04:28:31.505Z,21.70
2022-10-04T04:31:21.935Z,21.70
2022-10-04T04:33:51.405Z,21.80
2022-10-04T04:36:19.114Z,21.90
2022-10-04T04:39:04.966Z,22.00
2022-10-04T04:41:35.327Z,22.00
2022-10-04T04:44:03.198Z,22.10
2022-10-04T04:46:30.757Z,22.10
2022-10-04T04:49:02.788Z,22.10
2022-10-04T04:51:32.480Z,22.10
2022-10-04T04:54:01.426Z,22.10
2022-10-04T04:56:29.320Z,22.00
2022-10-04T04:58:59.539Z,22.00
2022-10-04T05:01:28.739Z,22.00
2022-10-04T05:04:13.732Z,22.00
2022-10-04T05:06:48.993Z,22.00
2022-10-04T05:09:22.980Z,21.90
2022-10-04T05:11:51.403Z,21.90
2022-10-04T05:14:19.564Z,21.90
2022-10-04T05:16:48.864Z,21.90
2022-10-04T05:19:21.603Z,21.90
2022-10-04T05:21:49.846Z,21.90
2022-10-04T05:24:19.982Z,21.80
2022-10-04T05:26:49.784Z,21.80
2022-10-04T05:29:21.272Z,21.80
2022-10-04T05:31:51.942Z,21.80
2022-10-04T05:34:22.679Z,21.80
2022-10-04T05:37:25.281Z,21.70
2022-10-04T05:39:55.292Z,21.70
2022-10-04T05:42:24.410Z,21.70
2022-10-04T05:44:54.981Z,21.80
2022-10-04T05:47:25.007Z,21.70
2022-10-04T05:49:57.411Z,21.70
2022-10-04T05:52:35.868Z,21.60
2022-10-04T05:55:11.996Z,21.60
2022-10-04T05:57:44.855Z,21.70
2022-10-04T06:00:14.287Z,21.70
2022-10-04T06:02:54.801Z,21.60
2022-10-04T06:05:42.157Z,21.60
2022-10-04T06:08:17.014Z,21.60
2022-10-04T06:10:48.883Z,21.60
2022-10-04T06:13:15.875Z,21.50
2022-10-04T06:16:01.646Z,21.50
2022-10-04T06:19:04.328Z,21.50
2022-10-04T06:21:35.437Z,21.50
2022-10-04T06:24:02.425Z,21.50
2022-10-04T06:26:41.308Z,21.50
2022-10-04T06:29:12.063Z,21.00
2022-10-04T06:31:55.376Z,20.00
2022-10-04T06:34:39.254Z,20.10
2022-10-04T06:37:24.802Z,20.40
2022-10-04T06:39:57.814Z,20.70
2022-10-04T06:42:44.514Z,20.80
2022-10-04T06:45:23.625Z,20.90
2022-10-04T06:48:03.048Z,20.90
2022-10-04T06:50:36.179Z,20.90
2022-10-04T06:53:23.499Z,21.00
2022-10-04T06:56:08.605Z,21.20
2022-10-04T06:58:42.974Z,21.30
2022-10-04T07:01:29.573Z,21.40
2022-10-04T07:04:15.368Z,21.50
2022-10-04T07:06:47.282Z,21.60
2022-10-04T07:09:21.551Z,21.60
2022-10-04T07:12:01.196Z,21.70
2022-10-04T07:14:30.936Z,21.70
2022-10-04T07:17:01.735Z,21.80
2022-10-04T07:19:48.337Z,21.80
2022-10-04T07:22:33.796Z,21.80
2022-10-04T07:25:03.649Z,21.80
2022-10-04T07:27:35.650Z,21.80
2022-10-04T07:30:07.006Z,21.80
2022-10-04T07:32:38.754Z,21.80
2022-10-04T07:35:13.903Z,21.80
2022-10-04T07:38:03.463Z,21.70
2022-10-04T07:40:33.514Z,21.70
2022-10-04T07:43:04.766Z,21.70
2022-10-04T07:45:37.203Z,21.70
2022-10-04T07:48:22.995Z,21.70
2022-10-04T07:50:59.702Z,21.70
2022-10-04T07:53:37.421Z,21.70
2022-10-04T07:56:10.609Z,21.70
2022-10-04T07:58:46.007Z,21.70
2022-10-04T08:01:13.283Z,21.70
2022-10-04T08:03:56.424Z,21.70
2022-10-04T08:06:33.386Z,21.70
2022-10-04T08:09:18.996Z,21.60
2022-10-04T08:11:46.051Z,21.60
2022-10-04T08:14:16.038Z,21.50
2022-10-04T08:16:53.412Z,21.50
2022-10-04T08:19:37.581Z,21.50
2022-10-04T08:22:23.498Z,21.40
2022-10-04T08:25:01.345Z,21.40
2022-10-04T08:28:03.143Z,21.40
2022-10-04T08:30:40.755Z,21.40
2022-10-04T08:33:12.892Z,21.30
2022-10-04T08:35:43.176Z,21.30
2022-10-04T08:38:18.843Z,21.30
2022-10-04T08:41:05.034Z,21.30
2022-10-04T08:43:42.196Z,21.30
2022-10-04T08:46:22.985Z,21.20
2022-10-04T08:48:59.912Z,21.20
2022-10-04T08:51:45.556Z,21.30
2022-10-04T08:54:22.579Z,21.40
2022-10-04T08:57:05.295Z,21.50
2022-10-04T08:59:40.232Z,21.60
2022-10-04T09:02:07.312Z,21.70
2022-10-04T09:04:52.315Z,21.70
2022-10-04T09:07:39.299Z,21.70
2022-10-04T09:10:26.659Z,21.70
2022-10-04T09:12:56.818Z,21.70
2022-10-04T09:15:31.335Z,21.70
2022-10-04T09:18:03.295Z,21.70
2022-10-04T09:20:38.629Z,21.70
2022-10-04T09:23:39.373Z,21.70
2022-10-04T09:26:20.659Z,21.70
2022-10-04T09:29:04.952Z,21.40
2022-10-04T09:31:44.650Z,21.40
2022-10-04T09:34:17.070Z,21.40
2022-10-04T09:36:58.209Z,21.40
2022-10-04T09:39:30.559Z,21.40
2022-10-04T09:42:16.843Z,21.90
2022-10-04T09:44:53.212Z,22.30
2022-10-04T09:47:37.804Z,22.50
2022-10-04T09:50:11.760Z,22.80
2022-10-04T09:52:41.888Z,22.70
2022-10-04T09:55:27.657Z,22.40
2022-10-04T09:57:54.661Z,22.10
2022-10-04T10:00:28.586Z,21.90
2022-10-04T10:02:56.372Z,21.90
2022-10-04T10:05:23.522Z,21.90
2022-10-04T10:07:59.863Z,21.80
2022-10-04T10:10:45.470Z,21.80
2022-10-04T10:13:39.797Z,21.70
2022-10-04T10:16:06.938Z,21.70
2022-10-04T10:18:42.810Z,21.70
2022-10-04T10:21:28.503Z,21.70
2022-10-04T10:23:55.532Z,21.70
2022-10-04T10:26:24.013Z,21.70
2022-10-04T10:29:09.970Z,21.70
2022-10-04T10:31:51.298Z,21.70
2022-10-04T10:34:31.023Z,21.70
2022-10-04T10:37:22.347Z,21.70
2022-10-04T10:39:56.575Z,21.70
2022-10-04T10:42:46.103Z,21.60
2022-10-04T10:45:23.431Z,21.60
2022-10-04T10:47:54.562Z,21.60
2022-10-04T10:50:58.508Z,21.60
2022-10-04T10:53:25.585Z,21.60
2022-10-04T10:56:26.693Z,21.50
2022-10-04T10:58:59.562Z,21.50
2022-10-04T11:01:39.042Z,21.50
2022-10-04T11:04:25.003Z,21.60
2022-10-04T11:07:01.777Z,21.50
2022-10-04T11:09:30.617Z,21.50
2022-10-04T11:12:16.636Z,21.50
2022-10-04T11:14:49.843Z,21.50
2022-10-04T11:17:20.911Z,21.50
2022-10-04T11:20:26.623Z,21.50
2022-10-04T11:23:12.515Z,21.60
2022-10-04T11:25:48.751Z,21.60
2022-10-04T11:28:24.885Z,21.70
2022-10-04T11:30:58.238Z,21.70
2022-10-04T11:33:43.843Z,21.70
2022-10-04T11:36:29.819Z,21.70
2022-10-04T11:39:14.191Z,21.70
2022-10-04T11:41:48.147Z,21.70
2022-10-04T11:44:16.340Z,21.70
2022-10-04T11:46:46.653Z,21.80
2022-10-04T11:49:16.750Z,21.80
2022-10-04T11:51:49.986Z,21.80
2022-10-04T11:54:31.723Z,21.80
2022-10-04T11:57:08.053Z,21.80
2022-10-04T11:59:53.924Z,21.80
2022-10-04T12:02:41.239Z,21.90
2022-10-04T12:05:20.536Z,21.90
2022-10-04T12:08:10.581Z,21.90
2022-10-04T12:10:39.386Z,22.00
2022-10-04T12:13:25.065Z,21.90
2022-10-04T12:15:58.291Z,21.80
2022-10-04T12:18:43.947Z,21.70
2022-10-04T12:21:14.133Z,21.70
2022-10-04T12:23:53.962Z,21.80
2022-10-04T12:26:20.999Z,21.80
2022-10-04T12:29:04.127Z,21.90
2022-10-04T12:31:35.679Z,21.80
2022-10-04T12:34:14.849Z,21.80
2022-10-04T12:37:00.008Z,21.90
2022-10-04T12:39:28.315Z,21.90
2022-10-04T12:42:02.114Z,21.90
2022-10-04T12:44:31.857Z,21.90
2022-10-04T12:46:58.807Z,21.90
2022-10-04T12:49:31.589Z,21.90
2022-10-04T12:52:17.545Z,21.80
2022-10-04T12:54:46.022Z,21.80
2022-10-04T12:57:32.159Z,21.80
2022-10-04T13:00:11.095Z,21.80
2022-10-04T13:02:38.144Z,21.80
2022-10-04T13:05:31.567Z,21.80
2022-10-04T13:07:58.659Z,21.90
2022-10-04T13:10:45.610Z,21.80
2022-10-04T13:13:19.047Z,21.80
2022-10-04T13:18:55.480Z,21.70
2022-10-04T13:21:42.844Z,21.90
2022-10-04T13:24:20.504Z,21.90
2022-10-04T13:26:54.848Z,22.00
2022-10-04T13:29:27.444Z,22.00
2022-10-04T13:32:07.092Z,22.10
2022-10-04T13:34:40.913Z,22.10
2022-10-04T13:37:28.238Z,22.10
2022-10-04T13:39:58.183Z,22.10
2022-10-04T13:42:25.194Z,22.10
2022-10-04T13:45:03.794Z,22.00
2022-10-04T13:47:33.537Z,22.00
2022-10-04T13:50:26.229Z,22.00
2022-10-04T13:53:28.051Z,21.90
2022-10-04T13:56:22.745Z,21.90
2022-10-04T13:58:55.686Z,21.80
2022-10-04T14:01:39.505Z,21.80
2022-10-04T14:04:06.573Z,21.80
2022-10-04T14:06:33.585Z,21.80
2022-10-04T14:09:22.831Z,21.70
2022-10-04T14:11:57.774Z,21.70
2022-10-04T14:14:47.166Z,21.70
2022-10-04T14:17:14.190Z,21.70
2022-10-04T14:20:04.568Z,21.70
2022-10-04T14:22:38.392Z,21.80
2022-10-04T14:25:41.368Z,21.70
2022-10-04T14:28:26.932Z,21.80
2022-10-04T14:31:02.862Z,21.80
2022-10-04T14:33:48.592Z,21.80
2022-10-04T14:36:30.949Z,21.70
2022-10-04T14:39:17.564Z,21.70
2022-10-04T14:42:17.109Z,21.70
2022-10-04T14:44:53.397Z,21.70
2022-10-04T14:47:28.885Z,21.70
2022-10-04T14:50:21.683Z,21.70
2022-10-04T14:53:05.119Z,21.70
2022-10-04T14:55:51.413Z,21.70
2022-10-04T14:58:31.153Z,21.60
2022-10-04T15:01:05.196Z,21.60
2022-10-04T15:03:51.113Z,21.60
2022-10-04T15:06:24.189Z,21.60
2022-10-04T15:09:10.072Z,21.60
2022-10-04T15:11:43.378Z,21.60
2022-10-04T15:14:30.459Z,21.60
2022-10-04T15:16:59.295Z,21.60
2022-10-04T15:19:28.899Z,21.60
2022-10-04T15:21:55.906Z,21.60
2022-10-04T15:24:25.498Z,21.60
2022-10-04T15:26:55.684Z,21.60
2022-10-04T15:29:25.768Z,21.60
2022-10-04T15:32:02.587Z,21.60
2022-10-04T15:34:42.514Z,21.60
2022-10-04T15:37:15.756Z,21.50
2022-10-04T15:39:48.908Z,21.50
2022-10-04T15:42:16.002Z,21.50
2022-10-04T15:44:49.361Z,21.50
2022-10-04T15:47:25.566Z,21.40
2022-10-04T15:49:55.525Z,21.40
2022-10-04T15:52:41.513Z,21.30
2022-10-04T15:55:12.139Z,21.40
2022-10-04T15:57:54.161Z,21.30
2022-10-04T16:00:26.936Z,21.30
2022-10-04T16:02:53.926Z,21.30
2022-10-04T16:05:24.205Z,21.30
2022-10-04T16:08:09.471Z,21.30
2022-10-04T16:10:58.485Z,21.20
2022-10-04T16:13:44.619Z,21.10
2022-10-04T16:16:17.871Z,21.20
2022-10-04T16:18:44.978Z,21.10
2022-10-04T16:21:30.722Z,21.20
2022-10-04T16:24:16.276Z,21.10
2022-10-04T16:26:44.025Z,21.10
2022-10-04T16:29:14.660Z,21.10
2022-10-04T16:31:42.981Z,21.10
2022-10-04T16:34:17.251Z,21.10
2022-10-04T16:36:49.384Z,21.10
2022-10-04T16:39:53.906Z,21.10
2022-10-04T16:42:23.692Z,21.10
2022-10-04T16:44:54.794Z,21.10
2022-10-04T16:47:21.768Z,21.10
2022-10-04T16:49:54.843Z,21.10
2022-10-04T16:52:27.300Z,21.10
2022-10-04T16:55:33.205Z,21.10
2022-10-04T16:58:19.481Z,21.20
2022-10-04T17:00:46.895Z,21.20
2022-10-04T17:03:19.703Z,21.20
2022-10-04T17:05:54.217Z,21.10
2022-10-04T17:08:28.571Z,21.20
2022-10-04T17:11:18.757Z,21.20
2022-10-04T17:14:05.660Z,21.20
2022-10-04T17:16:48.926Z,21.20
2022-10-04T17:19:15.975Z,21.20
2022-10-04T17:21:46.154Z,21.30
2022-10-04T17:24:20.197Z,21.30
2022-10-04T17:26:59.822Z,21.30
2022-10-04T17:29:49.217Z,21.30
2022-10-04T17:32:24.234Z,21.20
2022-10-04T17:34:57.403Z,21.20
2022-10-04T17:37:30.593Z,21.20
2022-10-04T17:40:12.672Z,21.30
2022-10-04T17:43:00.494Z,21.30
2022-10-04T17:45:46.165Z,21.30
2022-10-04T17:48:48.533Z,21.30
2022-10-04T17:52:14.084Z,21.40
2022-10-04T17:55:02.852Z,21.40
2022-10-04T17:57:48.609Z,21.30
2022-10-04T18:00:23.772Z,21.30
2022-10-04T18:02:59.980Z,21.30
2022-10-04T18:05:30.772Z,21.30
2022-10-04T18:08:01.133Z,21.30
2022-10-04T18:10:33.224Z,21.30
2022-10-04T18:13:03.684Z,21.30
2022-10-04T18:15:37.512Z,21.30
2022-10-04T18:18:10.675Z,21.30
2022-10-04T18:20:44.622Z,21.30
2022-10-04T18:23:25.315Z,21.30
2022-10-04T18:25:56.368Z,21.30
2022-10-04T18:28:23.526Z,21.20
2022-10-04T18:30:51.237Z,21.30
2022-10-04T18:33:26.120Z,21.20
2022-10-04T18:36:00.022Z,20.90
2022-10-04T18:38:28.907Z,20.60
2022-10-04T18:40:57.864Z,20.30
2022-10-04T18:43:33.312Z,20.10
2022-10-04T18:46:05.508Z,20.30
2022-10-04T18:48:40.554Z,20.50
2022-10-04T18:51:40.514Z,20.70
2022-10-04T18:54:16.619Z,20.80
2022-10-04T18:56:57.017Z,20.90
2022-10-04T18:59:51.525Z,21.00
2022-10-04T19:02:36.806Z,21.20
2022-10-04T19:05:15.312Z,21.30
2022-10-04T19:08:00.521Z,21.40
2022-10-04T19:10:41.957Z,21.40
2022-10-04T19:13:27.719Z,21.40
2022-10-04T19:16:12.528Z,21.50
2022-10-04T19:18:58.410Z,21.40
2022-10-04T19:21:32.801Z,21.50
2022-10-04T19:23:59.837Z,21.50
2022-10-04T19:26:36.865Z,21.40
2022-10-04T19:29:07.009Z,21.40
2022-10-04T19:31:41.516Z,21.40
2022-10-04T19:34:13.586Z,21.40
2022-10-04T19:36:58.493Z,21.40
2022-10-04T19:39:41.969Z,21.40
2022-10-04T19:42:16.068Z,21.40
2022-10-04T19:44:53.677Z,21.40
2022-10-04T19:47:20.679Z,21.40
2022-10-04T19:50:03.034Z,21.30
2022-10-04T19:52:32.872Z,21.30
2022-10-04T19:55:03.719Z,21.30
2022-10-04T19:57:37.015Z,21.30
2022-10-04T20:00:13.506Z,21.20
2022-10-04T20:02:47.467Z,21.20
2022-10-04T20:05:24.578Z,21.20
2022-10-04T20:07:52.947Z,21.20
2022-10-04T20:10:28.568Z,21.20
2022-10-04T20:13:07.880Z,21.20
2022-10-04T20:15:35.058Z,21.10
2022-10-04T20:18:03.213Z,21.10
2022-10-04T20:20:39.530Z,21.10
2022-10-04T20:23:07.647Z,21.10
2022-10-04T20:25:49.752Z,21.00
2022-10-04T20:28:26.088Z,21.00
2022-10-04T20:30:54.634Z,21.00
2022-10-04T20:33:33.921Z,21.00
2022-10-04T20:36:02.049Z,21.00
2022-10-04T20:38:49.061Z,20.90
2022-10-04T20:41:28.481Z,20.90
2022-10-04T20:43:57.309Z,20.90
2022-10-04T20:46:38.132Z,20.90
2022-10-04T20:49:13.819Z,20.80
2022-10-04T20:51:46.927Z,20.80
2022-10-04T20:54:18.137Z,20.80
2022-10-04T20:56:49.362Z,20.80
2022-10-04T20:59:17.391Z,20.80
2022-10-04T21:02:00.203Z,20.80
2022-10-04T21:04:34.593Z,20.80
2022-10-04T21:07:02.747Z,20.80
2022-10-04T21:09:31.013Z,20.80
2022-10-04T21:11:58.636Z,20.80
2022-10-04T21:14:38.018Z,20.70
2022-10-04T21:17:24.998Z,20.80
2022-10-04T21:19:52.081Z,20.70
2022-10-04T21:22:19.204Z,20.70
2022-10-04T21:24:46.210Z,20.70
2022-10-04T21:27:26.153Z,20.70
2022-10-04T21:29:53.668Z,20.70
2022-10-04T21:32:21.237Z,20.80
2022-10-04T21:34:53.569Z,20.70
2022-10-04T21:37:21.441Z,20.70
2022-10-04T21:39:48.602Z,20.70
2022-10-04T21:42:15.686Z,20.70
2022-10-04T21:44:42.955Z,20.70
2022-10-04T21:47:10.107Z,20.70
2022-10-04T21:49:38.348Z,20.60
2022-10-04T21:52:05.845Z,20.60
2022-10-04T21:54:33.184Z,20.60
2022-10-04T21:57:00.243Z,20.60
2022-10-04T21:59:27.284Z,20.60
2022-10-04T22:01:54.347Z,20.60
2022-10-04T22:04:21.353Z,20.60
2022-10-04T22:06:49.008Z,20.60
2022-10-04T22:09:16.438Z,20.60
2022-10-04T22:11:43.547Z,20.50
2022-10-04T22:14:10.557Z,20.60
2022-10-04T22:16:37.672Z,20.50
2022-10-04T22:19:04.914Z,20.50
2022-10-04T22:21:31.936Z,20.50
2022-10-04T22:23:59.536Z,20.50
2022-10-04T22:26:26.706Z,20.50
2022-10-04T22:28:54.944Z,20.50
2022-10-04T22:31:25.090Z,20.50
2022-10-04T22:33:52.182Z,20.50
2022-10-04T22:36:34.865Z,20.50
2022-10-04T22:39:09.419Z,20.40
2022-10-04T22:41:38.640Z,20.40
2022-10-04T22:44:18.769Z,20.40
2022-10-04T22:46:48.185Z,20.40
2022-10-04T22:49:16.485Z,20.40
2022-10-04T22:51:44.899Z,20.40
2022-10-04T22:54:13.194Z,20.40
2022-10-04T22:56:40.961Z,20.40
2022-10-04T22:59:11.994Z,20.40
2022-10-04T23:01:39.300Z,20.40
2022-10-04T23:04:22.918Z,20.40
2022-10-04T23:06:50.596Z,20.30
2022-10-04T23:09:17.895Z,20.30
2022-10-04T23:11:44.942Z,20.30
2022-10-04T23:14:12.109Z,20.30
2022-10-04T23:16:39.416Z,20.30
2022-10-04T23:19:10.163Z,20.30
2022-10-04T23:21:37.958Z,20.30
2022-10-04T23:24:21.368Z,20.30
2022-10-04T23:26:56.297Z,20.30
2022-10-04T23:29:24.715Z,20.20
2022-10-04T23:31:52.570Z,20.30
2022-10-04T23:34:28.709Z,20.30
2022-10-04T23:36:56.897Z,20.30
2022-10-04T23:39:26.028Z,20.30
2022-10-04T23:41:54.606Z,20.20
2022-10-04T23:44:34.946Z,20.20
2022-10-04T23:47:02.488Z,20.20
2022-10-04T23:49:29.620Z,20.20
2022-10-04T23:51:58.697Z,20.20
2022-10-04T23:54:26.398Z,20.20
2022-10-04T23:56:53.450Z,20.20
2022-10-04T23:59:21.962Z,20.20
